sensor_id;sensor_type;location;lat;lon;timestamp;P1;durP1;ratioP1;P2;durP2;ratioP2
70818;SDS011;58439;51.046;13.692;2022-11-23T00:02:39;38.78;;;16.35;;
70818;SDS011;58439;51.046;13.692;2022-11-23T00:05:34;41.17;;;15.60;;
70818;SDS011;58439;51.046;13.692;2022-11-23T00:08:01;43.35;;;16.15;;
70818;SDS011;58439;51.046;13.692;2022-11-23T00:10:28;40.35;;;16.67;;
70818;SDS011;58439;51.046;13.692;2022-11-23T00:12:55;40.28;;;15.68;;
70818;SDS011;58439;51.046;13.692;2022-11-23T00:15:23;43.95;;;16.08;;
70818;SDS011;58439;51.046;13.692;2022-11-23T00:17:51;37.65;;;16.13;;
70818;SDS011;58439;51.046;13.692;2022-11-23T00:20:40;46.30;;;16.70;;
70818;SDS011;58439;51.046;13.692;2022-11-23T00:23:07;43.55;;;15.45;;
70818;SDS011;58439;51.046;13.692;2022-11-23T00:25:35;40.55;;;15.90;;
70818;SDS011;58439;51.046;13.692;2022-11-23T00:28:02;38.10;;;14.90;;
70818;SDS011;58439;51.046;13.692;2022-11-23T00:30:29;39.20;;;14.85;;
70818;SDS011;58439;51.046;13.692;2022-11-23T00:32:56;42.33;;;15.88;;
70818;SDS011;58439;51.046;13.692;2022-11-23T00:35:24;42.33;;;16.17;;
70818;SDS011;58439;51.046;13.692;2022-11-23T00:40:48;38.88;;;17.00;;
70818;SDS011;58439;51.046;13.692;2022-11-23T00:43:46;38.25;;;14.55;;
70818;SDS011;58439;51.046;13.692;2022-11-23T00:46:24;43.75;;;15.60;;
70818;SDS011;58439;51.046;13.692;2022-11-23T00:48:54;36.65;;;14.82;;
70818;SDS011;58439;51.046;13.692;2022-11-23T00:51:31;39.75;;;15.40;;
70818;SDS011;58439;51.046;13.692;2022-11-23T00:54:01;40.80;;;15.95;;
70818;SDS011;58439;51.046;13.692;2022-11-23T00:56:31;49.47;;;16.98;;
70818;SDS011;58439;51.046;13.692;2022-11-23T00:59:01;40.22;;;16.17;;
70818;SDS011;58439;51.046;13.692;2022-11-23T01:01:30;45.78;;;16.83;;
70818;SDS011;58439;51.046;13.692;2022-11-23T01:07:21;40.20;;;15.02;;
70818;SDS011;58439;51.046;13.692;2022-11-23T01:09:52;43.78;;;15.55;;
70818;SDS011;58439;51.046;13.692;2022-11-23T01:12:22;45.28;;;16.13;;
70818;SDS011;58439;51.046;13.692;2022-11-23T01:14:54;39.03;;;14.88;;
70818;SDS011;58439;51.046;13.692;2022-11-23T01:17:30;45.75;;;15.80;;
70818;SDS011;58439;51.046;13.692;2022-11-23T01:29:16;41.17;;;14.18;;
70818;SDS011;58439;51.046;13.692;2022-11-23T01:32:44;37.13;;;15.05;;
70818;SDS011;58439;51.046;13.692;2022-11-23T01:35:12;45.65;;;16.58;;
70818;SDS011;58439;51.046;13.692;2022-11-23T01:37:39;38.70;;;15.48;;
70818;SDS011;58439;51.046;13.692;2022-11-23T01:40:07;37.75;;;14.88;;
70818;SDS011;58439;51.046;13.692;2022-11-23T01:42:42;42.85;;;15.65;;
70818;SDS011;58439;51.046;13.692;2022-11-23T01:48:15;40.63;;;15.02;;
70818;SDS011;58439;51.046;13.692;2022-11-23T01:50:48;45.50;;;15.38;;
70818;SDS011;58439;51.046;13.692;2022-11-23T01:53:19;41.75;;;14.90;;
70818;SDS011;58439;51.046;13.692;2022-11-23T01:55:50;40.67;;;14.77;;
70818;SDS011;58439;51.046;13.692;2022-11-23T02:00:08;38.35;;;13.55;;
70818;SDS011;58439;51.046;13.692;2022-11-23T02:04:53;38.05;;;13.63;;
70818;SDS011;58439;51.046;13.692;2022-11-23T02:08:32;45.33;;;15.30;;
70818;SDS011;58439;51.046;13.692;2022-11-23T02:12:05;48.80;;;15.23;;
70818;SDS011;58439;51.046;13.692;2022-11-23T02:14:37;47.78;;;15.88;;
70818;SDS011;58439;51.046;13.692;2022-11-23T02:17:06;42.55;;;15.48;;
70818;SDS011;58439;51.046;13.692;2022-11-23T02:19:40;47.45;;;15.40;;
70818;SDS011;58439;51.046;13.692;2022-11-23T02:25:37;40.35;;;14.07;;
70818;SDS011;58439;51.046;13.692;2022-11-23T02:28:14;42.05;;;15.15;;
70818;SDS011;58439;51.046;13.692;2022-11-23T02:30:49;47.65;;;15.75;;
70818;SDS011;58439;51.046;13.692;2022-11-23T02:33:22;43.00;;;15.75;;
70818;SDS011;58439;51.046;13.692;2022-11-23T02:35:57;38.33;;;14.52;;
70818;SDS011;58439;51.046;13.692;2022-11-23T02:38:29;44.88;;;15.93;;
70818;SDS011;58439;51.046;13.692;2022-11-23T02:41:08;42.60;;;15.27;;
70818;SDS011;58439;51.046;13.692;2022-11-23T02:43:36;49.08;;;15.52;;
70818;SDS011;58439;51.046;13.692;2022-11-23T02:46:03;45.15;;;16.15;;
70818;SDS011;58439;51.046;13.692;2022-11-23T02:48:53;38.05;;;15.50;;
70818;SDS011;58439;51.046;13.692;2022-11-23T02:51:23;42.25;;;15.57;;
70818;SDS011;58439;51.046;13.692;2022-11-23T02:53:53;41.85;;;15.70;;
70818;SDS011;58439;51.046;13.692;2022-11-23T02:56:23;39.55;;;15.45;;
70818;SDS011;58439;51.046;13.692;2022-11-23T02:58:50;46.00;;;15.98;;
70818;SDS011;58439;51.046;13.692;2022-11-23T03:01:18;40.42;;;15.32;;
70818;SDS011;58439;51.046;13.692;2022-11-23T03:06:51;41.25;;;15.48;;
70818;SDS011;58439;51.046;13.692;2022-11-23T03:09:34;46.30;;;15.07;;
70818;SDS011;58439;51.046;13.692;2022-11-23T03:12:01;45.08;;;15.65;;
70818;SDS011;58439;51.046;13.692;2022-11-23T03:14:29;43.47;;;16.40;;
70818;SDS011;58439;51.046;13.692;2022-11-23T03:16:59;46.42;;;15.82;;
70818;SDS011;58439;51.046;13.692;2022-11-23T03:22:00;43.70;;;15.90;;
70818;SDS011;58439;51.046;13.692;2022-11-23T03:24:36;46.85;;;17.02;;
70818;SDS011;58439;51.046;13.692;2022-11-23T03:27:15;45.05;;;16.23;;
70818;SDS011;58439;51.046;13.692;2022-11-23T03:29:46;42.65;;;16.05;;
70818;SDS011;58439;51.046;13.692;2022-11-23T03:32:19;40.95;;;15.07;;
70818;SDS011;58439;51.046;13.692;2022-11-23T03:34:52;43.60;;;16.13;;
70818;SDS011;58439;51.046;13.692;2022-11-23T03:37:35;45.40;;;17.52;;
70818;SDS011;58439;51.046;13.692;2022-11-23T03:40:05;43.22;;;16.33;;
70818;SDS011;58439;51.046;13.692;2022-11-23T03:46:25;42.25;;;15.60;;
70818;SDS011;58439;51.046;13.692;2022-11-23T03:48:56;46.00;;;16.48;;
70818;SDS011;58439;51.046;13.692;2022-11-23T03:51:44;48.67;;;14.50;;
70818;SDS011;58439;51.046;13.692;2022-11-23T03:54:23;39.63;;;15.00;;
70818;SDS011;58439;51.046;13.692;2022-11-23T03:57:01;43.25;;;14.52;;
70818;SDS011;58439;51.046;13.692;2022-11-23T04:02:17;47.90;;;16.05;;
70818;SDS011;58439;51.046;13.692;2022-11-23T04:18:39;49.25;;;16.27;;
70818;SDS011;58439;51.046;13.692;2022-11-23T04:21:07;38.70;;;14.57;;
70818;SDS011;58439;51.046;13.692;2022-11-23T04:23:34;38.30;;;14.23;;
70818;SDS011;58439;51.046;13.692;2022-11-23T04:26:03;48.05;;;16.15;;
70818;SDS011;58439;51.046;13.692;2022-11-23T04:28:31;41.08;;;16.02;;
70818;SDS011;58439;51.046;13.692;2022-11-23T04:30:59;47.50;;;16.92;;
70818;SDS011;58439;51.046;13.692;2022-11-23T04:33:34;46.28;;;17.50;;
70818;SDS011;58439;51.046;13.692;2022-11-23T05:22:34;39.92;;;14.40;;
70818;SDS011;58439;51.046;13.692;2022-11-23T05:25:08;49.65;;;15.52;;
70818;SDS011;58439;51.046;13.692;2022-11-23T05:27:52;42.25;;;15.55;;
70818;SDS011;58439;51.046;13.692;2022-11-23T05:31:09;41.30;;;15.45;;
70818;SDS011;58439;51.046;13.692;2022-11-23T05:43:44;36.92;;;15.48;;
70818;SDS011;58439;51.046;13.692;2022-11-23T06:11:12;43.88;;;15.93;;
70818;SDS011;58439;51.046;13.692;2022-11-23T06:13:44;43.92;;;15.30;;
70818;SDS011;58439;51.046;13.692;2022-11-23T06:20:11;51.13;;;17.33;;
70818;SDS011;58439;51.046;13.692;2022-11-23T06:22:43;55.15;;;18.63;;
70818;SDS011;58439;51.046;13.692;2022-11-23T06:25:28;42.80;;;17.27;;
70818;SDS011;58439;51.046;13.692;2022-11-23T06:28:08;51.92;;;16.80;;
70818;SDS011;58439;51.046;13.692;2022-11-23T06:30:42;50.83;;;16.10;;
70818;SDS011;58439;51.046;13.692;2022-11-23T06:33:10;47.92;;;17.17;;
70818;SDS011;58439;51.046;13.692;2022-11-23T06:35:54;47.05;;;17.17;;
70818;SDS011;58439;51.046;13.692;2022-11-23T06:38:30;47.72;;;17.90;;
70818;SDS011;58439;51.046;13.692;2022-11-23T06:41:36;46.13;;;16.77;;
70818;SDS011;58439;51.046;13.692;2022-11-23T06:44:07;46.10;;;15.30;;
70818;SDS011;58439;51.046;13.692;2022-11-23T06:46:41;46.67;;;16.98;;
70818;SDS011;58439;51.046;13.692;2022-11-23T06:49:11;48.33;;;17.10;;
70818;SDS011;58439;51.046;13.692;2022-11-23T06:51:44;46.97;;;16.90;;
70818;SDS011;58439;51.046;13.692;2022-11-23T06:54:12;47.17;;;17.08;;
70818;SDS011;58439;51.046;13.692;2022-11-23T06:56:39;56.97;;;17.10;;
70818;SDS011;58439;51.046;13.692;2022-11-23T07:21:18;53.00;;;17.67;;
70818;SDS011;58439;51.046;13.692;2022-11-23T07:23:45;44.08;;;16.17;;
70818;SDS011;58439;51.046;13.692;2022-11-23T07:26:16;43.40;;;15.20;;
70818;SDS011;58439;51.046;13.692;2022-11-23T07:28:45;49.55;;;17.20;;
70818;SDS011;58439;51.046;13.692;2022-11-23T07:31:18;48.65;;;17.15;;
70818;SDS011;58439;51.046;13.692;2022-11-23T07:34:04;47.38;;;17.27;;
70818;SDS011;58439;51.046;13.692;2022-11-23T07:40:31;44.83;;;16.17;;
70818;SDS011;58439;51.046;13.692;2022-11-23T07:42:59;48.03;;;16.95;;
70818;SDS011;58439;51.046;13.692;2022-11-23T07:45:28;52.75;;;17.40;;
70818;SDS011;58439;51.046;13.692;2022-11-23T07:48:07;49.53;;;16.98;;
70818;SDS011;58439;51.046;13.692;2022-11-23T07:50:36;51.90;;;17.48;;
70818;SDS011;58439;51.046;13.692;2022-11-23T07:53:10;47.45;;;17.30;;
70818;SDS011;58439;51.046;13.692;2022-11-23T07:55:54;46.03;;;16.88;;
70818;SDS011;58439;51.046;13.692;2022-11-23T07:58:24;51.60;;;17.20;;
70818;SDS011;58439;51.046;13.692;2022-11-23T08:00:52;51.13;;;17.20;;
70818;SDS011;58439;51.046;13.692;2022-11-23T08:03:19;50.17;;;17.02;;
70818;SDS011;58439;51.046;13.692;2022-11-23T08:05:56;49.35;;;16.60;;
70818;SDS011;58439;51.046;13.692;2022-11-23T08:08:24;41.10;;;16.15;;
70818;SDS011;58439;51.046;13.692;2022-11-23T08:15:46;47.00;;;17.20;;
70818;SDS011;58439;51.046;13.692;2022-11-23T08:18:48;45.08;;;16.67;;
70818;SDS011;58439;51.046;13.692;2022-11-23T08:21:46;43.72;;;15.98;;
70818;SDS011;58439;51.046;13.692;2022-11-23T08:24:13;48.90;;;16.65;;
70818;SDS011;58439;51.046;13.692;2022-11-23T08:26:40;46.15;;;17.65;;
70818;SDS011;58439;51.046;13.692;2022-11-23T08:29:07;52.08;;;18.15;;
70818;SDS011;58439;51.046;13.692;2022-11-23T08:31:34;45.90;;;15.82;;
70818;SDS011;58439;51.046;13.692;2022-11-23T08:34:01;44.83;;;16.35;;
70818;SDS011;58439;51.046;13.692;2022-11-23T08:36:29;49.50;;;17.27;;
70818;SDS011;58439;51.046;13.692;2022-11-23T08:38:56;47.38;;;17.40;;
70818;SDS011;58439;51.046;13.692;2022-11-23T08:41:23;45.78;;;17.17;;
70818;SDS011;58439;51.046;13.692;2022-11-23T08:43:51;49.15;;;17.48;;
70818;SDS011;58439;51.046;13.692;2022-11-23T08:46:18;49.88;;;16.45;;
70818;SDS011;58439;51.046;13.692;2022-11-23T08:48:46;44.17;;;16.77;;
70818;SDS011;58439;51.046;13.692;2022-11-23T08:51:13;54.38;;;18.67;;
70818;SDS011;58439;51.046;13.692;2022-11-23T08:53:40;48.45;;;17.65;;
70818;SDS011;58439;51.046;13.692;2022-11-23T08:56:08;50.95;;;18.55;;
70818;SDS011;58439;51.046;13.692;2022-11-23T08:58:35;41.97;;;15.57;;
70818;SDS011;58439;51.046;13.692;2022-11-23T09:01:06;49.78;;;16.65;;
70818;SDS011;58439;51.046;13.692;2022-11-23T09:03:39;46.65;;;16.95;;
70818;SDS011;58439;51.046;13.692;2022-11-23T09:06:08;45.45;;;17.35;;
70818;SDS011;58439;51.046;13.692;2022-11-23T09:08:36;39.38;;;15.98;;
70818;SDS011;58439;51.046;13.692;2022-11-23T09:11:05;43.75;;;17.98;;
70818;SDS011;58439;51.046;13.692;2022-11-23T09:13:42;37.95;;;16.23;;
70818;SDS011;58439;51.046;13.692;2022-11-23T09:19:16;41.47;;;15.82;;
70818;SDS011;58439;51.046;13.692;2022-11-23T09:24:30;42.60;;;16.13;;
70818;SDS011;58439;51.046;13.692;2022-11-23T09:27:01;44.67;;;15.75;;
70818;SDS011;58439;51.046;13.692;2022-11-23T09:29:28;41.20;;;16.08;;
70818;SDS011;58439;51.046;13.692;2022-11-23T09:31:55;41.17;;;15.05;;
70818;SDS011;58439;51.046;13.692;2022-11-23T09:34:23;37.92;;;15.02;;
70818;SDS011;58439;51.046;13.692;2022-11-23T09:36:52;38.53;;;14.18;;
70818;SDS011;58439;51.046;13.692;2022-11-23T09:39:22;40.58;;;15.35;;
70818;SDS011;58439;51.046;13.692;2022-11-23T09:47:54;41.78;;;17.13;;
70818;SDS011;58439;51.046;13.692;2022-11-23T09:50:49;40.47;;;17.35;;
70818;SDS011;58439;51.046;13.692;2022-11-23T09:53:32;39.00;;;15.82;;
70818;SDS011;58439;51.046;13.692;2022-11-23T09:56:14;38.20;;;15.52;;
70818;SDS011;58439;51.046;13.692;2022-11-23T09:58:57;38.47;;;15.48;;
70818;SDS011;58439;51.046;13.692;2022-11-23T10:01:29;36.20;;;15.57;;
70818;SDS011;58439;51.046;13.692;2022-11-23T10:03:58;34.40;;;14.90;;
70818;SDS011;58439;51.046;13.692;2022-11-23T10:06:28;41.42;;;15.63;;
70818;SDS011;58439;51.046;13.692;2022-11-23T10:09:24;44.20;;;16.52;;
70818;SDS011;58439;51.046;13.692;2022-11-23T10:20:58;41.65;;;15.88;;
70818;SDS011;58439;51.046;13.692;2022-11-23T10:23:52;37.03;;;15.80;;
70818;SDS011;58439;51.046;13.692;2022-11-23T10:26:39;43.35;;;14.88;;
70818;SDS011;58439;51.046;13.692;2022-11-23T10:32:04;31.63;;;13.80;;
70818;SDS011;58439;51.046;13.692;2022-11-23T10:35:11;33.80;;;13.65;;
70818;SDS011;58439;51.046;13.692;2022-11-23T10:37:41;35.60;;;14.77;;
70818;SDS011;58439;51.046;13.692;2022-11-23T10:40:16;36.78;;;13.95;;
70818;SDS011;58439;51.046;13.692;2022-11-23T10:42:50;31.95;;;12.73;;
70818;SDS011;58439;51.046;13.692;2022-11-23T10:45:25;37.53;;;13.88;;
70818;SDS011;58439;51.046;13.692;2022-11-23T10:47:55;32.28;;;12.70;;
70818;SDS011;58439;51.046;13.692;2022-11-23T10:50:29;29.73;;;13.38;;
70818;SDS011;58439;51.046;13.692;2022-11-23T10:53:22;28.42;;;11.27;;
70818;SDS011;58439;51.046;13.692;2022-11-23T10:55:52;34.33;;;11.98;;
70818;SDS011;58439;51.046;13.692;2022-11-23T10:58:28;31.40;;;11.75;;
70818;SDS011;58439;51.046;13.692;2022-11-23T11:01:02;25.52;;;12.07;;
70818;SDS011;58439;51.046;13.692;2022-11-23T11:03:37;32.42;;;13.15;;
70818;SDS011;58439;51.046;13.692;2022-11-23T11:06:05;35.75;;;12.70;;
70818;SDS011;58439;51.046;13.692;2022-11-23T11:08:36;30.20;;;12.50;;
70818;SDS011;58439;51.046;13.692;2022-11-23T11:11:20;31.65;;;11.52;;
70818;SDS011;58439;51.046;13.692;2022-11-23T11:16:47;32.05;;;12.65;;
70818;SDS011;58439;51.046;13.692;2022-11-23T11:19:29;30.83;;;11.98;;
70818;SDS011;58439;51.046;13.692;2022-11-23T11:22:03;28.20;;;11.73;;
70818;SDS011;58439;51.046;13.692;2022-11-23T11:24:55;28.02;;;11.13;;
70818;SDS011;58439;51.046;13.692;2022-11-23T11:27:23;32.25;;;12.25;;
70818;SDS011;58439;51.046;13.692;2022-11-23T11:29:54;29.77;;;12.55;;
70818;SDS011;58439;51.046;13.692;2022-11-23T11:36:02;25.80;;;11.13;;
70818;SDS011;58439;51.046;13.692;2022-11-23T11:38:34;27.83;;;12.35;;
70818;SDS011;58439;51.046;13.692;2022-11-23T11:44:39;28.80;;;11.35;;
70818;SDS011;58439;51.046;13.692;2022-11-23T11:46:53;30.23;;;11.45;;
70818;SDS011;58439;51.046;13.692;2022-11-23T11:50:04;25.48;;;10.68;;
70818;SDS011;58439;51.046;13.692;2022-11-23T11:52:59;24.55;;;11.38;;
70818;SDS011;58439;51.046;13.692;2022-11-23T11:58:16;28.80;;;12.40;;
70818;SDS011;58439;51.046;13.692;2022-11-23T12:00:45;26.27;;;10.05;;
70818;SDS011;58439;51.046;13.692;2022-11-23T12:06:12;29.23;;;11.48;;
70818;SDS011;58439;51.046;13.692;2022-11-23T12:09:00;24.00;;;11.00;;
70818;SDS011;58439;51.046;13.692;2022-11-23T12:11:38;30.27;;;11.95;;
70818;SDS011;58439;51.046;13.692;2022-11-23T12:14:05;25.55;;;9.82;;
70818;SDS011;58439;51.046;13.692;2022-11-23T12:26:01;32.08;;;11.25;;
70818;SDS011;58439;51.046;13.692;2022-11-23T12:31:41;33.17;;;13.27;;
70818;SDS011;58439;51.046;13.692;2022-11-23T12:34:28;22.50;;;10.60;;
70818;SDS011;58439;51.046;13.692;2022-11-23T12:37:15;28.52;;;11.20;;
70818;SDS011;58439;51.046;13.692;2022-11-23T12:40:44;26.17;;;10.32;;
70818;SDS011;58439;51.046;13.692;2022-11-23T12:43:21;32.92;;;11.70;;
70818;SDS011;58439;51.046;13.692;2022-11-23T12:49:10;28.10;;;10.75;;
70818;SDS011;58439;51.046;13.692;2022-11-23T12:57:19;28.48;;;11.25;;
70818;SDS011;58439;51.046;13.692;2022-11-23T13:00:01;32.58;;;12.15;;
70818;SDS011;58439;51.046;13.692;2022-11-23T13:22:40;30.63;;;13.15;;
70818;SDS011;58439;51.046;13.692;2022-11-23T13:30:29;36.95;;;14.90;;
70818;SDS011;58439;51.046;13.692;2022-11-23T13:33:24;31.63;;;14.73;;
70818;SDS011;58439;51.046;13.692;2022-11-23T13:36:03;36.85;;;14.75;;
70818;SDS011;58439;51.046;13.692;2022-11-23T13:38:40;39.15;;;14.88;;
70818;SDS011;58439;51.046;13.692;2022-11-23T13:44:21;37.20;;;15.57;;
70818;SDS011;58439;51.046;13.692;2022-11-23T13:55:01;41.15;;;15.93;;
70818;SDS011;58439;51.046;13.692;2022-11-23T13:57:44;43.47;;;15.15;;
70818;SDS011;58439;51.046;13.692;2022-11-23T14:06:20;37.13;;;14.93;;
70818;SDS011;58439;51.046;13.692;2022-11-23T14:12:15;36.53;;;16.13;;
70818;SDS011;58439;51.046;13.692;2022-11-23T14:14:59;41.53;;;15.48;;
70818;SDS011;58439;51.046;13.692;2022-11-23T14:20:26;39.60;;;16.58;;
70818;SDS011;58439;51.046;13.692;2022-11-23T14:43:41;48.75;;;18.05;;
70818;SDS011;58439;51.046;13.692;2022-11-23T14:46:15;49.17;;;16.38;;
70818;SDS011;58439;51.046;13.692;2022-11-23T14:48:46;40.88;;;16.23;;
70818;SDS011;58439;51.046;13.692;2022-11-23T14:51:18;46.85;;;17.08;;
70818;SDS011;58439;51.046;13.692;2022-11-23T14:53:53;45.83;;;16.60;;
70818;SDS011;58439;51.046;13.692;2022-11-23T14:59:05;46.45;;;15.85;;
70818;SDS011;58439;51.046;13.692;2022-11-23T15:01:59;40.33;;;16.80;;
70818;SDS011;58439;51.046;13.692;2022-11-23T15:04:53;40.83;;;16.00;;
70818;SDS011;58439;51.046;13.692;2022-11-23T15:07:51;48.22;;;18.13;;
70818;SDS011;58439;51.046;13.692;2022-11-23T15:10:44;45.97;;;16.67;;
70818;SDS011;58439;51.046;13.692;2022-11-23T15:13:45;40.88;;;16.80;;
70818;SDS011;58439;51.046;13.692;2022-11-23T15:18:45;42.35;;;15.23;;
70818;SDS011;58439;51.046;13.692;2022-11-23T15:21:20;49.20;;;18.10;;
70818;SDS011;58439;51.046;13.692;2022-11-23T15:23:54;42.47;;;15.75;;
70818;SDS011;58439;51.046;13.692;2022-11-23T15:26:25;50.85;;;16.27;;
70818;SDS011;58439;51.046;13.692;2022-11-23T15:29:34;46.78;;;16.23;;
70818;SDS011;58439;51.046;13.692;2022-11-23T15:32:18;46.20;;;17.55;;
70818;SDS011;58439;51.046;13.692;2022-11-23T15:35:06;43.28;;;16.90;;
70818;SDS011;58439;51.046;13.692;2022-11-23T15:37:44;44.42;;;16.98;;
70818;SDS011;58439;51.046;13.692;2022-11-23T15:40:15;41.13;;;16.00;;
70818;SDS011;58439;51.046;13.692;2022-11-23T15:42:45;43.88;;;16.98;;
70818;SDS011;58439;51.046;13.692;2022-11-23T15:48:04;37.72;;;16.85;;
70818;SDS011;58439;51.046;13.692;2022-11-23T15:50:58;43.28;;;16.83;;
70818;SDS011;58439;51.046;13.692;2022-11-23T15:53:29;48.05;;;17.15;;
70818;SDS011;58439;51.046;13.692;2022-11-23T15:56:27;52.53;;;17.95;;
70818;SDS011;58439;51.046;13.692;2022-11-23T15:58:55;49.28;;;17.58;;
70818;SDS011;58439;51.046;13.692;2022-11-23T16:01:28;46.03;;;18.20;;
70818;SDS011;58439;51.046;13.692;2022-11-23T16:03:58;48.75;;;18.05;;
70818;SDS011;58439;51.046;13.692;2022-11-23T16:06:36;41.97;;;16.40;;
70818;SDS011;58439;51.046;13.692;2022-11-23T16:12:27;44.88;;;15.75;;
70818;SDS011;58439;51.046;13.692;2022-11-23T16:14:58;38.67;;;16.20;;
70818;SDS011;58439;51.046;13.692;2022-11-23T16:18:04;48.20;;;18.17;;
70818;SDS011;58439;51.046;13.692;2022-11-23T16:20:44;45.50;;;17.38;;
70818;SDS011;58439;51.046;13.692;2022-11-23T16:23:20;45.53;;;17.95;;
70818;SDS011;58439;51.046;13.692;2022-11-23T16:25:56;45.83;;;17.70;;
70818;SDS011;58439;51.046;13.692;2022-11-23T16:28:27;40.38;;;15.77;;
70818;SDS011;58439;51.046;13.692;2022-11-23T16:31:01;50.75;;;17.80;;
70818;SDS011;58439;51.046;13.692;2022-11-23T16:33:29;48.27;;;17.30;;
70818;SDS011;58439;51.046;13.692;2022-11-23T16:35:57;44.22;;;17.55;;
70818;SDS011;58439;51.046;13.692;2022-11-23T16:38:24;45.38;;;17.38;;
70818;SDS011;58439;51.046;13.692;2022-11-23T16:40:52;47.30;;;18.45;;
70818;SDS011;58439;51.046;13.692;2022-11-23T16:43:19;45.83;;;17.30;;
70818;SDS011;58439;51.046;13.692;2022-11-23T16:45:47;43.60;;;17.75;;
70818;SDS011;58439;51.046;13.692;2022-11-23T16:50:53;46.85;;;18.20;;
70818;SDS011;58439;51.046;13.692;2022-11-23T16:53:22;46.63;;;17.65;;
70818;SDS011;58439;51.046;13.692;2022-11-23T16:55:52;55.15;;;19.48;;
70818;SDS011;58439;51.046;13.692;2022-11-23T16:58:48;52.42;;;21.20;;
70818;SDS011;58439;51.046;13.692;2022-11-23T17:01:21;53.35;;;19.02;;
70818;SDS011;58439;51.046;13.692;2022-11-23T17:03:51;52.95;;;19.92;;
70818;SDS011;58439;51.046;13.692;2022-11-23T17:06:19;54.78;;;22.00;;
70818;SDS011;58439;51.046;13.692;2022-11-23T17:08:49;63.85;;;21.00;;
70818;SDS011;58439;51.046;13.692;2022-11-23T17:11:28;52.72;;;20.23;;
70818;SDS011;58439;51.046;13.692;2022-11-23T17:13:55;59.78;;;20.85;;
70818;SDS011;58439;51.046;13.692;2022-11-23T17:16:24;52.90;;;20.92;;
70818;SDS011;58439;51.046;13.692;2022-11-23T17:18:52;59.80;;;21.95;;
70818;SDS011;58439;51.046;13.692;2022-11-23T17:21:19;56.03;;;21.95;;
70818;SDS011;58439;51.046;13.692;2022-11-23T17:23:47;54.33;;;21.08;;
70818;SDS011;58439;51.046;13.692;2022-11-23T17:26:30;54.65;;;20.90;;
70818;SDS011;58439;51.046;13.692;2022-11-23T17:29:04;52.08;;;20.50;;
70818;SDS011;58439;51.046;13.692;2022-11-23T17:31:41;52.80;;;22.02;;
70818;SDS011;58439;51.046;13.692;2022-11-23T17:34:11;64.63;;;21.98;;
70818;SDS011;58439;51.046;13.692;2022-11-23T17:36:40;56.33;;;21.55;;
70818;SDS011;58439;51.046;13.692;2022-11-23T17:39:19;56.78;;;21.10;;
70818;SDS011;58439;51.046;13.692;2022-11-23T17:41:52;51.60;;;19.85;;
70818;SDS011;58439;51.046;13.692;2022-11-23T17:44:19;54.50;;;20.52;;
70818;SDS011;58439;51.046;13.692;2022-11-23T17:46:46;48.88;;;19.40;;
70818;SDS011;58439;51.046;13.692;2022-11-23T17:49:24;52.75;;;20.38;;
70818;SDS011;58439;51.046;13.692;2022-11-23T17:51:54;55.80;;;20.83;;
70818;SDS011;58439;51.046;13.692;2022-11-23T17:54:24;57.70;;;20.70;;
70818;SDS011;58439;51.046;13.692;2022-11-23T17:56:53;51.08;;;19.23;;
70818;SDS011;58439;51.046;13.692;2022-11-23T17:59:21;51.58;;;19.55;;
70818;SDS011;58439;51.046;13.692;2022-11-23T18:01:48;48.75;;;18.88;;
70818;SDS011;58439;51.046;13.692;2022-11-23T18:04:16;52.92;;;20.23;;
70818;SDS011;58439;51.046;13.692;2022-11-23T18:06:43;55.45;;;20.38;;
70818;SDS011;58439;51.046;13.692;2022-11-23T18:09:11;56.55;;;19.20;;
70818;SDS011;58439;51.046;13.692;2022-11-23T18:11:38;49.22;;;19.20;;
70818;SDS011;58439;51.046;13.692;2022-11-23T18:15:11;51.38;;;19.67;;
70818;SDS011;58439;51.046;13.692;2022-11-23T18:17:52;54.92;;;18.33;;
70818;SDS011;58439;51.046;13.692;2022-11-23T18:20:30;57.15;;;20.27;;
70818;SDS011;58439;51.046;13.692;2022-11-23T18:22:58;49.78;;;18.83;;
70818;SDS011;58439;51.046;13.692;2022-11-23T18:25:25;59.53;;;19.17;;
70818;SDS011;58439;51.046;13.692;2022-11-23T18:27:52;55.55;;;18.70;;
70818;SDS011;58439;51.046;13.692;2022-11-23T18:30:20;48.30;;;19.02;;
70818;SDS011;58439;51.046;13.692;2022-11-23T18:32:47;49.95;;;19.83;;
70818;SDS011;58439;51.046;13.692;2022-11-23T18:35:15;57.25;;;20.25;;
70818;SDS011;58439;51.046;13.692;2022-11-23T18:37:42;53.85;;;18.98;;
70818;SDS011;58439;51.046;13.692;2022-11-23T18:44:31;51.03;;;18.83;;
70818;SDS011;58439;51.046;13.692;2022-11-23T18:46:59;55.28;;;20.10;;
70818;SDS011;58439;51.046;13.692;2022-11-23T18:49:26;56.65;;;20.67;;
70818;SDS011;58439;51.046;13.692;2022-11-23T18:51:55;46.83;;;18.25;;
70818;SDS011;58439;51.046;13.692;2022-11-23T18:54:23;54.70;;;20.90;;
70818;SDS011;58439;51.046;13.692;2022-11-23T18:56:50;50.00;;;19.20;;
70818;SDS011;58439;51.046;13.692;2022-11-23T18:59:17;53.42;;;20.15;;
70818;SDS011;58439;51.046;13.692;2022-11-23T19:02:07;52.13;;;20.38;;
70818;SDS011;58439;51.046;13.692;2022-11-23T19:04:37;50.65;;;19.20;;
70818;SDS011;58439;51.046;13.692;2022-11-23T19:07:05;49.88;;;20.40;;
70818;SDS011;58439;51.046;13.692;2022-11-23T19:09:33;53.70;;;20.08;;
70818;SDS011;58439;51.046;13.692;2022-11-23T19:12:01;56.53;;;19.85;;
70818;SDS011;58439;51.046;13.692;2022-11-23T19:14:32;58.20;;;20.60;;
70818;SDS011;58439;51.046;13.692;2022-11-23T19:16:59;59.15;;;21.02;;
70818;SDS011;58439;51.046;13.692;2022-11-23T19:19:27;59.60;;;22.58;;
70818;SDS011;58439;51.046;13.692;2022-11-23T19:21:55;50.88;;;20.63;;
70818;SDS011;58439;51.046;13.692;2022-11-23T19:24:22;66.07;;;21.90;;
70818;SDS011;58439;51.046;13.692;2022-11-23T19:26:50;56.20;;;22.25;;
70818;SDS011;58439;51.046;13.692;2022-11-23T19:29:18;66.50;;;21.33;;
70818;SDS011;58439;51.046;13.692;2022-11-23T19:34:21;55.70;;;19.88;;
70818;SDS011;58439;51.046;13.692;2022-11-23T19:36:55;68.90;;;24.20;;
70818;SDS011;58439;51.046;13.692;2022-11-23T19:39:26;59.13;;;22.65;;
70818;SDS011;58439;51.046;13.692;2022-11-23T19:41:53;61.03;;;22.15;;
70818;SDS011;58439;51.046;13.692;2022-11-23T19:44:21;61.42;;;23.02;;
70818;SDS011;58439;51.046;13.692;2022-11-23T19:46:48;63.10;;;21.58;;
70818;SDS011;58439;51.046;13.692;2022-11-23T19:49:16;63.15;;;24.17;;
70818;SDS011;58439;51.046;13.692;2022-11-23T19:51:47;66.28;;;23.52;;
70818;SDS011;58439;51.046;13.692;2022-11-23T19:54:18;61.25;;;24.27;;
70818;SDS011;58439;51.046;13.692;2022-11-23T19:56:45;60.10;;;23.83;;
70818;SDS011;58439;51.046;13.692;2022-11-23T19:59:15;62.75;;;21.08;;
70818;SDS011;58439;51.046;13.692;2022-11-23T20:01:42;61.17;;;22.63;;
70818;SDS011;58439;51.046;13.692;2022-11-23T20:04:10;59.72;;;21.60;;
70818;SDS011;58439;51.046;13.692;2022-11-23T20:06:39;58.72;;;22.00;;
70818;SDS011;58439;51.046;13.692;2022-11-23T20:09:19;60.70;;;23.45;;
70818;SDS011;58439;51.046;13.692;2022-11-23T20:11:48;51.97;;;20.90;;